Time;durP1;ratioP1;P1;durP2;ratioP2;P2;SDS_P1;SDS_P2;PMS_P1;PMS_P2;Temp;Humidity;BMP_temperature;BMP_pressure;BME280_temperature;BME280_humidity;BME280_pressure;Samples;Min_cycle;Max_cycle;Signal;HPM_P1;HPM_P2
2022/08/05 00:00:21;;;;;;;6.83;3.17;;;18.80;99.90;;;;;;4351790;28;656431;-66
2022/08/05 00:03:08;;;;;;;10.30;3.17;;;18.80;99.90;;;;;;4373527;28;656809;-67
2022/08/05 00:05:55;;;;;;;6.60;3.47;;;18.80;99.90;;;;;;4350911;28;657273;-67
2022/08/05 00:08:43;;;;;;;8.27;3.50;;;18.70;99.90;;;;;;4371442;28;657913;-67
2022/08/05 00:11:31;;;;;;;3.97;2.90;;;18.70;99.90;;;;;;4364640;28;657159;-67
2022/08/05 00:14:19;;;;;;;4.37;2.90;;;18.60;99.90;;;;;;4370668;28;658280;-66
2022/08/05 00:17:06;;;;;;;7.83;3.40;;;18.50;99.90;;;;;;4349868;28;657062;-67
2022/08/05 00:19:53;;;;;;;9.80;2.87;;;18.40;99.90;;;;;;4373470;28;656880;-67
2022/08/05 00:22:40;;;;;;;5.10;3.20;;;18.40;99.90;;;;;;4355952;28;657042;-68
2022/08/05 00:25:27;;;;;;;9.60;3.50;;;18.30;99.90;;;;;;4374482;28;656560;-67
2022/08/05 00:28:16;;;;;;;12.40;3.07;;;18.30;99.90;;;;;;4373285;28;656369;-66
2022/08/05 00:31:03;;;;;;;11.97;3.50;;;18.30;99.90;;;;;;4348539;28;657774;-67
2022/08/05 00:33:50;;;;;;;4.97;3.37;;;18.30;99.90;;;;;;4351347;28;657768;-67
2022/08/05 00:36:37;;;;;;;6.87;3.13;;;18.20;99.90;;;;;;4376898;28;657571;-66
2022/08/05 00:39:24;;;;;;;6.07;3.60;;;18.10;99.90;;;;;;4372001;28;656581;-68
2022/08/05 00:42:11;;;;;;;10.23;3.57;;;18.10;99.90;;;;;;4352002;28;656115;-66
2022/08/05 00:45:00;;;;;;;5.13;3.30;;;18.10;99.90;;;;;;4371966;28;657630;-67
2022/08/05 00:47:47;;;;;;;13.17;3.50;;;18.10;99.90;;;;;;4351876;28;656956;-67
2022/08/05 00:50:34;;;;;;;5.43;3.17;;;18.10;99.90;;;;;;4370647;28;657577;-67
2022/08/05 00:53:22;;;;;;;11.60;3.73;;;18.10;99.90;;;;;;4355141;28;656577;-66
2022/08/05 00:56:09;;;;;;;9.83;3.50;;;18.10;99.90;;;;;;4369215;28;658428;-67
2022/08/05 00:58:56;;;;;;;7.87;3.07;;;18.10;99.90;;;;;;4353980;28;656215;-67
2022/08/05 01:01:45;;;;;;;7.30;3.67;;;17.90;99.90;;;;;;4354325;28;656804;-66
2022/08/05 01:04:32;;;;;;;8.43;3.47;;;17.80;99.90;;;;;;4343598;28;658312;-66
2022/08/05 01:07:19;;;;;;;11.97;3.67;;;17.70;99.90;;;;;;4370011;28;656487;-66
2022/08/05 01:10:06;;;;;;;7.37;3.60;;;17.70;99.90;;;;;;4351812;28;657551;-67
2022/08/05 01:12:55;;;;;;;7.33;3.73;;;17.50;99.90;;;;;;4353369;28;656772;-66
2022/08/05 01:15:45;;;;;;;4.53;3.40;;;17.50;99.90;;;;;;4350959;28;657051;-66
2022/08/05 01:18:36;;;;;;;7.03;3.40;;;17.50;99.90;;;;;;4349522;28;657101;-67
2022/08/05 01:21:36;;;;;;;7.07;3.57;;;17.40;99.90;;;;;;4348732;28;656860;-67
2022/08/05 01:24:40;;;;;;;14.17;3.73;;;17.40;99.90;;;;;;4342229;28;657404;-67
2022/08/05 01:28:07;;;;;;;4.50;3.37;;;17.30;99.90;;;;;;4323766;28;658307;-68
2022/08/05 01:30:57;;;;;;;11.30;3.67;;;17.40;99.90;;;;;;4347708;28;657380;-67
2022/08/05 01:33:52;;;;;;;7.90;3.77;;;17.30;99.90;;;;;;4344252;28;657912;-67
2022/08/05 01:36:42;;;;;;;7.97;3.77;;;17.30;99.90;;;;;;4340999;28;657401;-67
2022/08/05 01:39:29;;;;;;;7.45;3.65;;;17.30;99.90;;;;;;4365754;28;657199;-67
2022/08/05 01:42:19;;;;;;;8.00;3.83;;;17.30;99.90;;;;;;4338684;28;658795;-67
2022/08/05 01:45:08;;;;;;;9.27;3.87;;;17.20;99.90;;;;;;4349211;28;656493;-67
2022/08/05 01:47:55;;;;;;;13.50;3.97;;;17.10;99.90;;;;;;4348746;28;656759;-66
2022/08/05 01:50:43;;;;;;;6.80;3.60;;;17.10;99.90;;;;;;4364319;28;658406;-67
2022/08/05 01:53:30;;;;;;;11.48;3.70;;;17.10;99.90;;;;;;4336589;28;656319;-67
2022/08/05 01:56:17;;;;;;;9.73;3.80;;;17.10;99.90;;;;;;4352750;28;657694;-66
2022/08/05 01:59:06;;;;;;;9.73;3.80;;;17.10;99.90;;;;;;4346951;28;656431;-66
2022/08/05 02:01:56;;;;;;;11.63;3.75;;;17.10;99.90;;;;;;4330699;28;657748;-66
2022/08/05 02:04:43;;;;;;;11.63;4.20;;;17.10;99.90;;;;;;4326681;28;658393;-66
2022/08/05 02:07:30;;;;;;;8.27;3.57;;;17.00;99.90;;;;;;4325970;28;659551;-67
2022/08/05 02:10:17;;;;;;;10.07;4.23;;;16.90;99.90;;;;;;4353666;28;658201;-67
2022/08/05 02:13:08;;;;;;;11.73;3.87;;;16.80;99.90;;;;;;4349245;28;657995;-67
2022/08/05 02:15:58;;;;;;;7.00;3.80;;;16.80;99.90;;;;;;4332702;28;657349;-68
2022/08/05 02:18:48;;;;;;;8.67;3.80;;;16.70;99.90;;;;;;4335943;28;657594;-68
2022/08/05 02:21:39;;;;;;;9.87;4.03;;;16.70;99.90;;;;;;4336513;28;657305;-66
2022/08/05 02:24:28;;;;;;;5.90;3.67;;;16.70;99.90;;;;;;4333661;28;657823;-66
2022/08/05 02:27:15;;;;;;;6.13;3.80;;;16.70;99.90;;;;;;4334094;28;658448;-66
2022/08/05 02:30:02;;;;;;;6.00;3.60;;;16.70;99.90;;;;;;4355255;28;656706;-67
2022/08/05 02:32:51;;;;;;;6.17;3.87;;;16.60;99.90;;;;;;4346500;28;656351;-66
2022/08/05 02:35:39;;;;;;;13.17;3.80;;;16.60;99.90;;;;;;4328473;28;657225;-67
2022/08/05 02:38:28;;;;;;;8.90;3.80;;;16.50;99.90;;;;;;4332173;28;657666;-67
2022/08/05 02:41:16;;;;;;;5.20;3.70;;;16.50;99.90;;;;;;4330491;28;656544;-67
2022/08/05 02:44:03;;;;;;;7.73;4.10;;;16.40;99.90;;;;;;4350976;28;657025;-66
2022/08/05 02:46:50;;;;;;;7.50;3.73;;;16.50;99.90;;;;;;4339387;28;656663;-67
2022/08/05 02:49:38;;;;;;;7.40;4.10;;;16.50;99.90;;;;;;4358406;28;656582;-66
2022/08/05 02:52:27;;;;;;;6.63;3.77;;;16.50;99.90;;;;;;4347664;28;656342;-67
2022/08/05 02:55:14;;;;;;;9.87;3.63;;;16.50;99.90;;;;;;4370654;28;656598;-66
2022/08/05 02:58:01;;;;;;;4.77;3.70;;;16.40;99.90;;;;;;4353032;28;656996;-66
2022/08/05 03:00:48;;;;;;;11.10;4.17;;;16.30;99.90;;;;;;4374553;28;658273;-67
2022/08/05 03:03:37;;;;;;;6.17;3.97;;;16.40;99.90;;;;;;4349584;28;657399;-68
2022/08/05 03:06:24;;;;;;;8.03;4.03;;;16.40;99.90;;;;;;4373921;28;656292;-67
2022/08/05 03:09:13;;;;;;;6.67;4.50;;;16.30;99.90;;;;;;4353680;28;656586;-67
2022/08/05 03:12:00;;;;;;;6.78;4.13;;;16.30;99.90;;;;;;4352404;28;656364;-67
2022/08/05 03:14:47;;;;;;;6.47;3.73;;;16.30;99.90;;;;;;4375272;28;657485;-67
2022/08/05 03:17:34;;;;;;;7.97;3.73;;;16.20;99.90;;;;;;4370365;28;656671;-67
2022/08/05 03:20:21;;;;;;;7.63;4.10;;;16.30;99.90;;;;;;4352515;28;657206;-67
2022/08/05 03:23:09;;;;;;;10.70;4.10;;;16.30;99.90;;;;;;4367780;28;656690;-67
2022/08/05 03:25:58;;;;;;;9.00;3.80;;;16.30;99.90;;;;;;4348509;28;657382;-67
2022/08/05 03:28:45;;;;;;;8.13;4.13;;;16.30;99.90;;;;;;4362789;28;656825;-67
2022/08/05 03:31:33;;;;;;;5.30;3.80;;;16.30;99.90;;;;;;4370138;28;658008;-68
2022/08/05 03:34:20;;;;;;;5.43;3.70;;;16.30;99.90;;;;;;4357945;28;656153;-68
2022/08/05 03:37:07;;;;;;;7.10;3.60;;;16.30;99.90;;;;;;4376197;28;657058;-67
2022/08/05 03:39:59;;;;;;;6.17;4.23;;;16.30;99.90;;;;;;4372574;28;656162;-68
2022/08/05 03:42:47;;;;;;;10.93;4.47;;;16.20;99.90;;;;;;4330862;28;656559;-67
2022/08/05 03:45:34;;;;;;;6.77;4.27;;;16.20;99.90;;;;;;4369040;28;657954;-67
2022/08/05 03:48:21;;;;;;;6.23;3.80;;;16.30;99.90;;;;;;4350442;28;656876;-67
2022/08/05 03:51:12;;;;;;;6.10;4.40;;;16.30;99.90;;;;;;4368181;28;656610;-67
2022/08/05 03:54:00;;;;;;;7.97;4.10;;;16.40;99.90;;;;;;4352781;28;656718;-68
2022/08/05 03:56:47;;;;;;;10.87;3.97;;;16.40;99.90;;;;;;4349552;28;656902;-67
2022/08/05 03:59:37;;;;;;;7.07;4.33;;;16.40;99.90;;;;;;4370997;28;657900;-67
2022/08/05 04:02:26;;;;;;;5.37;3.97;;;16.40;99.90;;;;;;4348960;28;656777;-67
2022/08/05 04:05:13;;;;;;;4.87;3.83;;;16.50;99.90;;;;;;4348187;28;656840;-67
2022/08/05 04:08:01;;;;;;;6.63;4.00;;;16.50;99.90;;;;;;4351423;28;658114;-67
2022/08/05 04:10:49;;;;;;;5.83;4.30;;;16.50;99.90;;;;;;4375285;28;657277;-67
2022/08/05 04:13:38;;;;;;;7.53;4.43;;;16.60;99.90;;;;;;4351049;28;656931;-67
2022/08/05 04:16:27;;;;;;;9.23;4.37;;;16.80;99.90;;;;;;4350183;28;656534;-67
2022/08/05 04:19:14;;;;;;;6.07;4.40;;;16.90;99.90;;;;;;4369551;28;657224;-68
2022/08/05 04:22:01;;;;;;;7.17;4.50;;;17.00;99.90;;;;;;4352498;28;656961;-67
2022/08/05 04:24:48;;;;;;;7.90;4.37;;;17.10;99.90;;;;;;4367730;28;657580;-67
2022/08/05 04:27:35;;;;;;;8.27;4.33;;;17.30;99.90;;;;;;4352838;28;656515;-68
2022/08/05 04:30:22;;;;;;;8.63;4.93;;;17.40;99.90;;;;;;4370828;28;658001;-67
2022/08/05 04:33:11;;;;;;;7.73;4.87;;;17.50;99.90;;;;;;4368048;28;656525;-67
2022/08/05 04:35:59;;;;;;;13.97;5.80;;;17.60;99.90;;;;;;4369733;28;657215;-68
2022/08/05 04:38:46;;;;;;;10.40;5.43;;;17.70;99.90;;;;;;4348964;28;657774;-67
2022/08/05 04:41:33;;;;;;;7.73;4.60;;;17.80;99.90;;;;;;4372014;28;657734;-67
2022/08/05 04:44:20;;;;;;;7.65;4.65;;;17.90;99.90;;;;;;4360637;28;656937;-68
2022/08/05 04:47:07;;;;;;;7.53;4.83;;;18.00;99.90;;;;;;4375744;28;657761;-67
2022/08/05 04:49:56;;;;;;;11.80;4.57;;;18.00;99.90;;;;;;4376741;28;657331;-67
2022/08/05 04:52:43;;;;;;;7.10;4.63;;;18.20;99.90;;;;;;4345823;28;657972;-68
2022/08/05 04:55:30;;;;;;;4.88;4.13;;;18.30;99.90;;;;;;4353878;28;656984;-68
2022/08/05 04:58:17;;;;;;;8.17;4.30;;;18.40;99.90;;;;;;4377001;28;657355;-66
2022/08/05 05:01:05;;;;;;;9.50;5.00;;;18.40;99.90;;;;;;4370432;28;656854;-67
2022/08/05 05:03:52;;;;;;;9.20;4.57;;;18.60;99.90;;;;;;4366242;28;657438;-67
2022/08/05 05:06:41;;;;;;;5.87;4.23;;;18.70;99.90;;;;;;4365011;28;657138;-67
2022/08/05 05:09:29;;;;;;;7.30;4.87;;;18.80;99.90;;;;;;4371423;28;656989;-68
2022/08/05 05:12:16;;;;;;;10.63;4.83;;;18.90;99.90;;;;;;4347643;28;656720;-68
2022/08/05 05:15:04;;;;;;;9.97;4.33;;;19.10;99.90;;;;;;4361393;28;657918;-68
2022/08/05 05:17:51;;;;;;;5.63;4.17;;;19.30;99.90;;;;;;4342267;28;656641;-67
2022/08/05 05:20:38;;;;;;;4.68;4.13;;;19.50;99.90;;;;;;4368857;28;658134;-67
2022/08/05 05:23:27;;;;;;;8.27;4.10;;;19.70;99.90;;;;;;4352101;28;656782;-67
2022/08/05 05:26:14;;;;;;;13.70;3.90;;;19.80;99.90;;;;;;4367354;28;657232;-67
2022/08/05 05:29:01;;;;;;;12.50;4.90;;;20.00;99.90;;;;;;4350788;28;657913;-68
2022/08/05 05:31:49;;;;;;;6.43;5.00;;;20.10;99.90;;;;;;4369147;28;657711;-68
2022/08/05 05:34:36;;;;;;;7.70;4.70;;;20.30;99.90;;;;;;4352861;28;657254;-68
2022/08/05 05:37:23;;;;;;;5.33;4.40;;;20.40;99.90;;;;;;4377543;28;656935;-67
2022/08/05 05:40:14;;;;;;;6.03;4.55;;;20.60;99.90;;;;;;4346260;28;656874;-68
2022/08/05 05:43:01;;;;;;;6.23;4.67;;;20.70;99.90;;;;;;4346521;28;657827;-68
2022/08/05 05:45:48;;;;;;;6.50;4.17;;;20.80;99.90;;;;;;4368648;28;657151;-68
2022/08/05 05:48:35;;;;;;;6.43;4.37;;;21.00;99.90;;;;;;4348150;28;657525;-68
2022/08/05 05:51:23;;;;;;;5.40;4.33;;;21.10;99.90;;;;;;4373432;28;656661;-68
2022/08/05 05:54:10;;;;;;;5.20;4.33;;;21.30;99.90;;;;;;4348944;28;657001;-68
2022/08/05 05:56:59;;;;;;;8.43;4.10;;;21.40;99.90;;;;;;4430046;28;656967;-65
2022/08/05 05:59:46;;;;;;;8.17;4.10;;;21.50;99.90;;;;;;4347156;28;657109;-63
2022/08/05 06:02:33;;;;;;;5.00;4.03;;;21.60;99.90;;;;;;4370903;28;657865;-64
2022/08/05 06:05:20;;;;;;;8.00;4.10;;;21.80;99.90;;;;;;4352479;28;657606;-64
2022/08/05 06:08:09;;;;;;;11.03;4.43;;;21.90;99.90;;;;;;4377448;28;656623;-64
2022/08/05 06:10:56;;;;;;;12.83;4.50;;;22.10;99.90;;;;;;4348387;28;657574;-63
2022/08/05 06:13:44;;;;;;;10.53;4.30;;;22.30;99.90;;;;;;4375320;28;658905;-63
2022/08/05 06:16:31;;;;;;;7.30;4.20;;;22.40;99.90;;;;;;4349040;28;658007;-63
2022/08/05 06:19:19;;;;;;;10.77;4.10;;;22.60;99.90;;;;;;4373157;28;657347;-63
2022/08/05 06:22:06;;;;;;;8.97;4.27;;;22.70;99.90;;;;;;4352905;28;657533;-63
2022/08/05 06:24:54;;;;;;;9.77;4.67;;;22.90;99.90;;;;;;4371358;28;657100;-64
2022/08/05 06:27:41;;;;;;;6.53;3.83;;;23.00;99.90;;;;;;4350373;28;656787;-64
2022/08/05 06:30:30;;;;;;;6.93;4.17;;;23.20;99.90;;;;;;4369933;28;657588;-63
2022/08/05 06:33:17;;;;;;;7.67;4.20;;;23.30;99.90;;;;;;4347446;28;658413;-63
2022/08/05 06:36:05;;;;;;;5.40;4.23;;;23.40;99.90;;;;;;4371593;28;657394;-63
2022/08/05 06:38:53;;;;;;;7.60;4.10;;;23.50;99.90;;;;;;4348530;28;658125;-63
2022/08/05 06:41:40;;;;;;;8.00;4.17;;;23.80;99.90;;;;;;4349081;28;656513;-64
2022/08/05 06:44:27;;;;;;;6.13;4.23;;;23.90;99.90;;;;;;4364501;28;659186;-63
2022/08/05 06:47:16;;;;;;;8.13;4.10;;;24.10;99.90;;;;;;4364612;28;656819;-63
2022/08/05 06:50:03;;;;;;;8.20;4.20;;;24.10;99.90;;;;;;4337642;28;656698;-63
2022/08/05 06:52:50;;;;;;;7.10;4.33;;;24.20;99.90;;;;;;4329770;28;657022;-64
2022/08/05 06:55:37;;;;;;;5.77;4.50;;;24.40;99.90;;;;;;4360542;28;657939;-63
2022/08/05 06:58:25;;;;;;;5.40;4.10;;;24.60;99.90;;;;;;4365886;28;656201;-64
2022/08/05 07:01:12;;;;;;;6.33;4.47;;;24.70;99.90;;;;;;4363078;28;658171;-64
2022/08/05 07:04:01;;;;;;;6.17;4.13;;;24.80;98.70;;;;;;4365939;28;656443;-64
2022/08/05 07:06:48;;;;;;;10.80;4.30;;;25.00;99.10;;;;;;4343999;28;657566;-64
2022/08/05 07:09:35;;;;;;;7.97;4.37;;;24.90;98.10;;;;;;4353735;28;657810;-63
2022/08/05 07:18:32;;;;;;;8.90;4.32;;;25.30;96.40;;;;;;4345306;28;656748;-63
2022/08/05 07:21:21;;;;;;;4.65;4.00;;;25.60;94.80;;;;;;4365119;28;657067;-64
2022/08/05 07:24:08;;;;;;;10.68;4.40;;;25.60;93.90;;;;;;4355352;28;657426;-64
2022/08/05 07:26:55;;;;;;;7.40;4.85;;;25.60;95.70;;;;;;4346673;28;657978;-64
2022/08/05 07:29:43;;;;;;;5.13;4.18;;;25.80;94.20;;;;;;4383705;28;657602;-64
2022/08/05 07:32:34;;;;;;;6.32;4.20;;;25.90;93.90;;;;;;4350114;28;656667;-65
2022/08/05 07:35:22;;;;;;;5.95;4.75;;;26.10;96.20;;;;;;4345522;28;657358;-64
2022/08/05 07:38:11;;;;;;;7.38;4.45;;;26.20;94.60;;;;;;4363796;28;656507;-64
2022/08/05 07:40:58;;;;;;;6.80;4.60;;;26.30;92.80;;;;;;4341474;28;657545;-63
2022/08/05 07:43:45;;;;;;;7.50;4.47;;;26.70;93.80;;;;;;4352990;28;657079;-65
2022/08/05 07:46:33;;;;;;;7.53;4.10;;;26.90;90.50;;;;;;4370358;28;657346;-63
2022/08/05 07:49:20;;;;;;;6.38;4.47;;;26.90;90.70;;;;;;4347996;28;656899;-64
2022/08/05 07:52:07;;;;;;;5.72;4.53;;;27.30;88.80;;;;;;4367527;28;656490;-63
2022/08/05 07:54:56;;;;;;;4.78;4.28;;;27.50;83.20;;;;;;4376106;28;657189;-64
2022/08/05 07:57:43;;;;;;;4.68;4.10;;;27.50;82.70;;;;;;4358996;28;657020;-64
2022/08/05 08:00:30;;;;;;;7.13;4.35;;;27.50;80.60;;;;;;4352391;28;656573;-64
2022/08/05 08:03:17;;;;;;;5.80;4.45;;;27.80;82.10;;;;;;4381930;28;656353;-64
2022/08/05 08:06:04;;;;;;;4.88;4.35;;;28.10;85.80;;;;;;4372658;28;657427;-63
2022/08/05 08:08:52;;;;;;;7.07;4.43;;;28.00;83.30;;;;;;4357968;28;656338;-64
2022/08/05 08:11:40;;;;;;;5.18;4.22;;;28.10;86.80;;;;;;4362297;28;657063;-63
2022/08/05 08:14:27;;;;;;;5.53;4.47;;;28.10;85.90;;;;;;4341524;28;657228;-64
2022/08/05 08:17:14;;;;;;;5.38;4.43;;;28.40;83.60;;;;;;4377925;28;657178;-63
2022/08/05 08:20:03;;;;;;;9.30;4.35;;;28.60;82.20;;;;;;4355534;28;657842;-64
2022/08/05 08:22:51;;;;;;;4.78;4.28;;;29.00;77.90;;;;;;4367354;28;656875;-63
2022/08/05 08:25:38;;;;;;;7.22;4.50;;;29.00;78.60;;;;;;4370620;28;657516;-64
2022/08/05 08:28:27;;;;;;;7.13;4.75;;;29.10;77.00;;;;;;4344811;28;656314;-64
2022/08/05 08:31:14;;;;;;;8.40;4.55;;;29.10;81.30;;;;;;4360873;28;656712;-63
2022/08/05 08:34:01;;;;;;;6.82;4.50;;;29.20;76.50;;;;;;4346535;28;656544;-64
2022/08/05 08:36:48;;;;;;;7.32;4.55;;;29.40;77.50;;;;;;4363371;28;657675;-64
2022/08/05 08:39:35;;;;;;;8.35;4.60;;;29.60;73.00;;;;;;4336500;28;656470;-64
2022/08/05 08:42:22;;;;;;;11.30;5.00;;;29.70;73.60;;;;;;4361180;28;658462;-64
2022/08/05 08:45:12;;;;;;;7.20;4.70;;;29.80;71.60;;;;;;4368680;28;657855;-64
2022/08/05 08:48:01;;;;;;;12.93;4.80;;;29.50;74.00;;;;;;4364305;28;656072;-64
2022/08/05 08:50:48;;;;;;;6.18;4.55;;;29.60;71.50;;;;;;4336213;28;659272;-64
2022/08/05 08:53:36;;;;;;;6.15;4.75;;;30.00;72.60;;;;;;4343114;28;656330;-64
2022/08/05 08:56:23;;;;;;;6.45;4.60;;;30.20;69.40;;;;;;4360628;28;657556;-63
2022/08/05 08:59:11;;;;;;;9.25;4.90;;;29.60;68.20;;;;;;4344371;28;656823;-64
2022/08/05 09:02:00;;;;;;;7.10;4.93;;;29.60;71.50;;;;;;4358488;28;657930;-64
2022/08/05 09:04:47;;;;;;;6.10;4.38;;;29.80;71.60;;;;;;4337992;28;658050;-64
2022/08/05 09:07:34;;;;;;;11.15;4.90;;;30.20;68.60;;;;;;4366516;28;656296;-64
2022/08/05 09:10:21;;;;;;;10.10;4.88;;;30.50;72.50;;;;;;4345688;28;658166;-64
2022/08/05 09:13:09;;;;;;;8.57;5.28;;;30.70;71.80;;;;;;4373343;28;657996;-64
2022/08/05 09:15:56;;;;;;;8.65;4.63;;;30.60;66.70;;;;;;4354704;28;657058;-64
2022/08/05 09:18:44;;;;;;;8.73;4.85;;;30.90;70.50;;;;;;4375632;28;657204;-64
2022/08/05 09:21:31;;;;;;;10.98;4.40;;;31.10;68.30;;;;;;4346876;28;656102;-64
2022/08/05 09:24:18;;;;;;;5.32;4.80;;;31.40;66.80;;;;;;4358421;28;657932;-64
2022/08/05 09:27:08;;;;;;;9.23;4.28;;;31.50;64.60;;;;;;4345016;28;656852;-64
2022/08/05 09:29:55;;;;;;;10.10;4.72;;;31.30;64.50;;;;;;4344437;28;656767;-64
2022/08/05 09:32:43;;;;;;;5.97;4.70;;;31.50;66.20;;;;;;4357381;28;658813;-64
2022/08/05 09:35:32;;;;;;;8.25;4.57;;;31.80;63.80;;;;;;4355259;28;656718;-64
2022/08/05 09:38:19;;;;;;;9.45;4.75;;;31.50;64.00;;;;;;4359971;28;656474;-64
2022/08/05 09:41:07;;;;;;;5.72;4.65;;;31.60;63.80;;;;;;4340948;28;656818;-64
2022/08/05 09:43:54;;;;;;;5.55;4.43;;;31.90;60.30;;;;;;4356241;28;657642;-64
2022/08/05 09:46:41;;;;;;;7.90;4.53;;;32.10;60.90;;;;;;4325154;28;656665;-64
2022/08/05 09:49:28;;;;;;;7.68;4.25;;;32.20;58.30;;;;;;4359977;28;658298;-64
2022/08/05 09:52:24;;;;;;;6.80;4.10;;;32.60;60.60;;;;;;4340880;28;656404;-64
2022/08/05 09:55:12;;;;;;;9.43;4.60;;;32.60;60.80;;;;;;4300546;28;657398;-64
2022/08/05 09:57:59;;;;;;;5.03;4.50;;;32.40;60.80;;;;;;4369981;28;656533;-63
2022/08/05 10:00:53;;;;;;;8.23;4.53;;;32.70;58.80;;;;;;4346876;28;656598;-64
2022/08/05 10:03:40;;;;;;;5.47;4.20;;;32.90;56.00;;;;;;4311222;28;656962;-64
2022/08/05 10:06:27;;;;;;;6.90;4.05;;;32.50;56.20;;;;;;4370028;28;657682;-64
2022/08/05 10:09:20;;;;;;;8.25;4.28;;;32.50;55.20;;;;;;4360035;28;656620;-65
2022/08/05 10:12:08;;;;;;;5.60;4.00;;;33.10;56.40;;;;;;4340173;28;658202;-64
2022/08/05 10:15:22;;;;;;;8.85;3.90;;;33.10;53.30;;;;;;4356301;28;656382;-65
2022/08/05 10:18:12;;;;;;;4.68;3.67;;;32.90;53.00;;;;;;4352771;28;656378;-65
2022/08/05 10:21:01;;;;;;;4.25;3.85;;;32.60;55.10;;;;;;4358920;28;657204;-64
2022/08/05 10:23:48;;;;;;;4.45;3.72;;;32.80;50.70;;;;;;4338567;28;657372;-65
2022/08/05 10:26:37;;;;;;;7.87;3.93;;;33.30;53.60;;;;;;4349826;28;656972;-64
2022/08/05 10:29:25;;;;;;;4.80;3.63;;;33.40;54.90;;;;;;4363526;28;656729;-64
2022/08/05 10:32:12;;;;;;;8.90;3.67;;;33.80;50.40;;;;;;4345608;28;657696;-64
2022/08/05 10:34:59;;;;;;;5.88;3.55;;;33.90;50.40;;;;;;4364037;28;655941;-64
2022/08/05 10:37:47;;;;;;;4.25;3.78;;;33.30;48.10;;;;;;4342575;28;657865;-64
2022/08/05 10:40:35;;;;;;;9.45;3.75;;;32.60;49.20;;;;;;4358859;28;656870;-64
2022/08/05 10:43:40;;;;;;;8.15;3.80;;;32.90;48.70;;;;;;4341521;28;657553;-64
2022/08/05 10:46:43;;;;;;;5.40;3.97;;;32.80;46.60;;;;;;4321622;28;656846;-64
2022/08/05 10:49:30;;;;;;;4.30;3.17;;;33.60;49.50;;;;;;4304007;28;657144;-65
2022/08/05 10:52:36;;;;;;;3.70;3.10;;;34.20;45.00;;;;;;4374153;28;656711;-64
2022/08/05 10:55:23;;;;;;;6.07;3.40;;;33.90;45.30;;;;;;4340207;28;656643;-64
2022/08/05 10:58:12;;;;;;;6.28;3.80;;;33.90;46.10;;;;;;4341384;28;656458;-64
2022/08/05 11:01:04;;;;;;;5.50;3.75;;;33.90;46.00;;;;;;4363349;28;657212;-64
2022/08/05 11:04:10;;;;;;;4.65;3.35;;;33.90;46.60;;;;;;4344283;28;656358;-64
2022/08/05 11:07:05;;;;;;;5.78;3.75;;;34.40;46.80;;;;;;4344664;28;656543;-64
2022/08/05 11:09:52;;;;;;;5.85;3.45;;;34.30;44.50;;;;;;4333665;28;656649;-64
2022/08/05 11:12:46;;;;;;;6.07;3.17;;;34.00;48.90;;;;;;4350909;28;656795;-65
2022/08/05 11:15:38;;;;;;;7.78;3.30;;;34.70;45.90;;;;;;4347323;28;657056;-64
2022/08/05 11:18:32;;;;;;;6.32;3.15;;;35.20;44.70;;;;;;4330286;28;656079;-65
2022/08/05 11:21:37;;;;;;;3.72;3.03;;;34.50;44.30;;;;;;4335144;28;656711;-65
2022/08/05 11:24:24;;;;;;;3.37;2.93;;;33.40;46.50;;;;;;4339747;28;656920;-64
2022/08/05 11:27:30;;;;;;;4.82;2.75;;;33.10;47.70;;;;;;4341027;28;656735;-64
2022/08/05 11:30:17;;;;;;;7.72;3.10;;;33.50;45.10;;;;;;4314042;28;657898;-64
2022/08/05 11:33:25;;;;;;;5.13;3.05;;;33.40;47.90;;;;;;4359535;28;656160;-64
2022/08/05 11:36:14;;;;;;;3.42;3.03;;;33.80;42.10;;;;;;4311825;28;657860;-64
2022/08/05 11:39:02;;;;;;;3.50;3.00;;;34.00;41.80;;;;;;4338255;28;657484;-65
2022/08/05 11:41:50;;;;;;;5.13;2.65;;;33.10;42.70;;;;;;4348963;28;656459;-63
2022/08/05 11:44:39;;;;;;;3.28;2.90;;;33.10;43.30;;;;;;4353069;28;657617;-64
2022/08/05 11:47:26;;;;;;;4.45;2.90;;;33.10;41.20;;;;;;4343486;28;657967;-64
2022/08/05 11:50:13;;;;;;;4.15;2.60;;;33.50;41.40;;;;;;4367883;28;657937;-63
2022/08/05 11:53:05;;;;;;;4.68;2.97;;;33.50;40.80;;;;;;4354835;28;657144;-65
2022/08/05 11:55:53;;;;;;;3.03;2.73;;;33.60;41.70;;;;;;4343156;28;657716;-65
2022/08/05 11:58:41;;;;;;;5.53;2.80;;;33.10;42.80;;;;;;4344090;28;656786;-64
2022/08/05 12:01:28;;;;;;;3.20;2.67;;;33.50;43.70;;;;;;4363455;28;657716;-64
2022/08/05 12:04:15;;;;;;;6.20;3.03;;;34.10;41.40;;;;;;4342365;28;656167;-65
2022/08/05 12:07:03;;;;;;;5.07;2.72;;;34.20;42.90;;;;;;4362410;28;658381;-63
2022/08/05 12:09:53;;;;;;;4.40;2.60;;;34.30;41.90;;;;;;4359136;28;656374;-64
2022/08/05 12:12:40;;;;;;;4.10;2.90;;;34.50;41.10;;;;;;4336590;28;656827;-64
2022/08/05 12:15:27;;;;;;;7.78;2.95;;;34.70;40.80;;;;;;4372436;28;657250;-65
2022/08/05 12:18:17;;;;;;;3.47;2.80;;;35.20;41.80;;;;;;4369184;28;657579;-64
2022/08/05 12:21:12;;;;;;;7.05;2.88;;;35.00;40.20;;;;;;4345258;28;656485;-65
2022/08/05 12:24:00;;;;;;;5.37;3.00;;;34.40;40.10;;;;;;4321404;28;656418;-64
2022/08/05 12:26:51;;;;;;;7.07;3.00;;;34.50;39.00;;;;;;4343421;28;657292;-64
2022/08/05 12:29:38;;;;;;;3.08;2.47;;;34.60;39.20;;;;;;4339004;28;657097;-64
2022/08/05 12:32:25;;;;;;;5.68;2.88;;;35.00;40.20;;;;;;4350324;28;656589;-65
2022/08/05 12:35:14;;;;;;;6.90;2.88;;;35.50;41.50;;;;;;4369675;28;657799;-64
2022/08/05 12:38:01;;;;;;;3.53;2.60;;;35.70;44.20;;;;;;4341379;28;657081;-65
2022/08/05 12:40:48;;;;;;;3.60;2.78;;;35.10;40.40;;;;;;4366336;28;657114;-63
2022/08/05 12:43:48;;;;;;;5.68;2.70;;;35.10;40.60;;;;;;4348274;28;656684;-65
2022/08/05 12:46:36;;;;;;;5.78;2.90;;;34.10;41.40;;;;;;4317744;28;657319;-64
2022/08/05 12:49:23;;;;;;;5.00;2.97;;;33.70;40.10;;;;;;4360330;28;657686;-64
2022/08/05 12:52:14;;;;;;;4.72;2.90;;;34.10;40.30;;;;;;4351078;28;656417;-64
2022/08/05 12:55:01;;;;;;;7.60;3.10;;;34.20;42.70;;;;;;4329516;28;656569;-64
2022/08/05 12:57:48;;;;;;;4.15;2.88;;;34.60;41.20;;;;;;4348298;28;657595;-64
2022/08/05 13:00:36;;;;;;;7.63;3.10;;;34.60;40.90;;;;;;4325094;28;656581;-65
2022/08/05 13:03:24;;;;;;;5.75;2.90;;;34.20;46.30;;;;;;4343429;28;657365;-65
2022/08/05 13:06:15;;;;;;;7.37;3.03;;;34.20;42.80;;;;;;4324081;28;656698;-64
2022/08/05 13:09:06;;;;;;;5.03;2.90;;;34.70;44.30;;;;;;4336388;28;658223;-64
2022/08/05 13:12:01;;;;;;;3.60;3.07;;;35.30;42.90;;;;;;4337514;28;658540;-63
2022/08/05 13:14:48;;;;;;;5.97;3.00;;;34.10;40.90;;;;;;4329641;28;656974;-64
2022/08/05 13:17:37;;;;;;;7.57;3.08;;;34.30;42.10;;;;;;4324967;28;657015;-65
2022/08/05 13:20:24;;;;;;;5.22;2.88;;;34.20;45.80;;;;;;4348106;28;656272;-64
2022/08/05 13:23:11;;;;;;;3.83;2.97;;;33.40;43.00;;;;;;4325740;28;656840;-64
2022/08/05 13:26:00;;;;;;;3.20;2.90;;;33.40;44.00;;;;;;4345345;28;657616;-64
2022/08/05 13:28:47;;;;;;;4.05;2.90;;;34.10;41.30;;;;;;4321694;28;658574;-63
2022/08/05 13:31:34;;;;;;;8.18;3.03;;;33.70;41.20;;;;;;4350655;28;656961;-63
2022/08/05 13:34:22;;;;;;;6.80;2.78;;;33.70;42.20;;;;;;4318636;28;656455;-64
2022/08/05 13:37:10;;;;;;;3.38;2.75;;;33.50;41.70;;;;;;4350935;28;657809;-65
2022/08/05 13:39:57;;;;;;;7.25;2.85;;;33.90;44.40;;;;;;4348799;28;656473;-63
2022/08/05 13:42:44;;;;;;;4.32;2.72;;;34.50;39.40;;;;;;4338241;28;657482;-63
2022/08/05 13:45:31;;;;;;;5.05;2.60;;;34.50;43.30;;;;;;4324437;28;656628;-64
2022/08/05 13:48:18;;;;;;;5.63;2.50;;;34.90;41.30;;;;;;4333496;28;657200;-64
2022/08/05 13:51:07;;;;;;;3.63;2.45;;;35.00;40.90;;;;;;4325571;28;656392;-64
2022/08/05 13:53:55;;;;;;;3.05;2.75;;;35.50;41.70;;;;;;4339220;28;656926;-65
2022/08/05 13:56:42;;;;;;;3.23;2.60;;;35.90;39.60;;;;;;4330486;28;656878;-64
2022/08/05 13:59:30;;;;;;;4.85;2.60;;;36.40;40.70;;;;;;4352817;28;656454;-65
2022/08/05 14:02:17;;;;;;;4.03;2.57;;;36.40;39.60;;;;;;4349026;28;656674;-64
2022/08/05 14:05:12;;;;;;;4.93;2.63;;;35.20;37.40;;;;;;4346416;28;656704;-64
2022/08/05 14:08:00;;;;;;;5.10;2.80;;;35.20;38.20;;;;;;4329531;28;656676;-64
2022/08/05 14:10:47;;;;;;;8.23;2.73;;;34.40;37.40;;;;;;4333230;28;658149;-64
2022/08/05 14:13:35;;;;;;;3.58;2.63;;;35.00;38.70;;;;;;4341346;28;656516;-65
2022/08/05 14:16:22;;;;;;;4.73;2.67;;;35.00;42.00;;;;;;4348726;28;657011;-64
2022/08/05 14:19:10;;;;;;;5.72;2.83;;;35.50;43.90;;;;;;4354178;28;657068;-64
2022/08/05 14:21:57;;;;;;;4.18;2.60;;;36.30;41.70;;;;;;4357118;28;656601;-64
2022/08/05 14:24:46;;;;;;;6.70;2.60;;;35.80;42.40;;;;;;4357037;28;657160;-64
2022/08/05 14:27:33;;;;;;;5.88;2.72;;;35.70;39.60;;;;;;4319790;28;657327;-64
2022/08/05 14:30:20;;;;;;;4.50;2.35;;;36.00;37.20;;;;;;4322240;28;656711;-64